sensor_id;sensor_type;location;lat;lon;timestamp;temperature;humidity
58513;DHT22;44302;47.914;10.642;2022-11-20T08:26:39;4.90;99.90
58513;DHT22;44302;47.914;10.642;2022-11-20T08:29:05;5.00;99.90
58513;DHT22;44302;47.914;10.642;2022-11-20T08:31:32;5.20;99.90
58513;DHT22;44302;47.914;10.642;2022-11-20T08:33:57;5.30;99.90
58513;DHT22;44302;47.914;10.642;2022-11-20T08:36:24;5.30;99.90
58513;DHT22;44302;47.914;10.642;2022-11-20T08:38:52;5.30;99.90
58513;DHT22;44302;47.914;10.642;2022-11-20T08:41:18;5.70;99.90
58513;DHT22;44302;47.914;10.642;2022-11-20T08:43:58;6.40;99.90
58513;DHT22;44302;47.914;10.642;2022-11-20T08:46:25;6.80;99.90
58513;DHT22;44302;47.914;10.642;2022-11-20T08:48:52;7.30;99.90
58513;DHT22;44302;47.914;10.642;2022-11-20T08:51:18;7.40;99.90
58513;DHT22;44302;47.914;10.642;2022-11-20T08:53:45;7.10;99.90
58513;DHT22;44302;47.914;10.642;2022-11-20T08:56:11;6.70;99.90
58513;DHT22;44302;47.914;10.642;2022-11-20T08:58:37;6.10;99.90
58513;DHT22;44302;47.914;10.642;2022-11-20T09:01:03;6.00;99.90
58513;DHT22;44302;47.914;10.642;2022-11-20T09:03:29;6.80;99.90
58513;DHT22;44302;47.914;10.642;2022-11-20T09:05:59;7.70;99.90
58513;DHT22;44302;47.914;10.642;2022-11-20T09:08:26;7.90;99.90
58513;DHT22;44302;47.914;10.642;2022-11-20T09:10:56;8.00;99.90
58513;DHT22;44302;47.914;10.642;2022-11-20T09:13:23;8.40;99.90
58513;DHT22;44302;47.914;10.642;2022-11-20T09:15:58;8.30;99.90
58513;DHT22;44302;47.914;10.642;2022-11-20T09:18:25;8.30;99.90
58513;DHT22;44302;47.914;10.642;2022-11-20T09:20:51;8.40;99.90
58513;DHT22;44302;47.914;10.642;2022-11-20T09:23:17;8.70;99.90
58513;DHT22;44302;47.914;10.642;2022-11-20T09:25:43;9.10;99.90
58513;DHT22;44302;47.914;10.642;2022-11-20T09:28:09;9.10;99.90
58513;DHT22;44302;47.914;10.642;2022-11-20T09:30:35;9.10;99.90
58513;DHT22;44302;47.914;10.642;2022-11-20T09:33:00;9.00;99.90
58513;DHT22;44302;47.914;10.642;2022-11-20T09:35:26;8.60;99.90
58513;DHT22;44302;47.914;10.642;2022-11-20T09:37:51;8.20;99.90
58513;DHT22;44302;47.914;10.642;2022-11-20T09:40:21;8.90;99.90
58513;DHT22;44302;47.914;10.642;2022-11-20T09:48:57;8.30;99.90
58513;DHT22;44302;47.914;10.642;2022-11-20T09:51:42;7.90;99.90
58513;DHT22;44302;47.914;10.642;2022-11-20T09:54:43;7.50;99.90
58513;DHT22;44302;47.914;10.642;2022-11-20T09:57:17;7.10;99.90
58513;DHT22;44302;47.914;10.642;2022-11-20T09:59:48;6.70;99.90
58513;DHT22;44302;47.914;10.642;2022-11-20T10:02:25;6.80;99.90
58513;DHT22;44302;47.914;10.642;2022-11-20T10:05:09;7.00;99.90
58513;DHT22;44302;47.914;10.642;2022-11-20T10:07:41;6.60;99.90
58513;DHT22;44302;47.914;10.642;2022-11-20T10:10:21;6.50;99.90
58513;DHT22;44302;47.914;10.642;2022-11-20T10:13:05;7.00;99.90
58513;DHT22;44302;47.914;10.642;2022-11-20T10:34:03;8.30;99.90
58513;DHT22;44302;47.914;10.642;2022-11-20T10:36:37;8.50;99.90
58513;DHT22;44302;47.914;10.642;2022-11-20T10:39:15;9.00;99.90
58513;DHT22;44302;47.914;10.642;2022-11-20T10:41:42;9.50;99.90
58513;DHT22;44302;47.914;10.642;2022-11-20T10:44:15;9.50;99.90
58513;DHT22;44302;47.914;10.642;2022-11-20T10:47:03;9.70;99.90
58513;DHT22;44302;47.914;10.642;2022-11-20T10:49:30;9.70;99.90
58513;DHT22;44302;47.914;10.642;2022-11-20T10:57:53;8.00;99.90
58513;DHT22;44302;47.914;10.642;2022-11-20T11:00:21;8.30;99.90
58513;DHT22;44302;47.914;10.642;2022-11-20T11:02:54;9.10;99.90
58513;DHT22;44302;47.914;10.642;2022-11-20T11:05:38;9.40;99.90
58513;DHT22;44302;47.914;10.642;2022-11-20T11:08:12;9.20;99.90
58513;DHT22;44302;47.914;10.642;2022-11-20T11:13:26;9.40;99.90
58513;DHT22;44302;47.914;10.642;2022-11-20T11:15:53;8.70;99.90
58513;DHT22;44302;47.914;10.642;2022-11-20T11:18:26;8.20;99.90
58513;DHT22;44302;47.914;10.642;2022-11-20T11:20:53;8.10;99.90
58513;DHT22;44302;47.914;10.642;2022-11-20T11:23:33;8.30;99.90
58513;DHT22;44302;47.914;10.642;2022-11-20T11:26:01;9.10;99.90
58513;DHT22;44302;47.914;10.642;2022-11-20T11:28:28;9.40;99.90
58513;DHT22;44302;47.914;10.642;2022-11-20T11:30:54;8.90;99.90
58513;DHT22;44302;47.914;10.642;2022-11-20T11:33:22;8.80;99.90
58513;DHT22;44302;47.914;10.642;2022-11-20T11:36:16;8.40;99.90
58513;DHT22;44302;47.914;10.642;2022-11-20T11:38:44;8.20;99.90
58513;DHT22;44302;47.914;10.642;2022-11-20T11:41:15;7.70;99.90
58513;DHT22;44302;47.914;10.642;2022-11-20T11:43:53;7.30;99.90
58513;DHT22;44302;47.914;10.642;2022-11-20T11:46:39;7.10;99.90
58513;DHT22;44302;47.914;10.642;2022-11-20T11:51:47;6.70;99.90
58513;DHT22;44302;47.914;10.642;2022-11-20T11:54:48;6.70;99.90
58513;DHT22;44302;47.914;10.642;2022-11-20T12:00:08;6.40;99.90
58513;DHT22;44302;47.914;10.642;2022-11-20T12:05:28;6.30;99.90
58513;DHT22;44302;47.914;10.642;2022-11-20T12:08:04;6.20;99.90
58513;DHT22;44302;47.914;10.642;2022-11-20T12:10:39;6.00;99.90
58513;DHT22;44302;47.914;10.642;2022-11-20T12:16:05;5.80;99.90
58513;DHT22;44302;47.914;10.642;2022-11-20T12:18:31;5.80;99.90
58513;DHT22;44302;47.914;10.642;2022-11-20T12:21:19;5.80;99.90
58513;DHT22;44302;47.914;10.642;2022-11-20T12:24:19;5.90;99.90
58513;DHT22;44302;47.914;10.642;2022-11-20T12:37:48;6.10;99.90
58513;DHT22;44302;47.914;10.642;2022-11-20T12:41:15;6.30;99.90
58513;DHT22;44302;47.914;10.642;2022-11-20T12:43:30;6.40;99.90
58513;DHT22;44302;47.914;10.642;2022-11-20T12:51:57;6.40;99.90
58513;DHT22;44302;47.914;10.642;2022-11-20T13:00:09;6.30;99.90
58513;DHT22;44302;47.914;10.642;2022-11-20T13:06:11;6.50;99.90
58513;DHT22;44302;47.914;10.642;2022-11-20T13:08:43;6.50;99.90
58513;DHT22;44302;47.914;10.642;2022-11-20T13:11:35;6.60;99.90
58513;DHT22;44302;47.914;10.642;2022-11-20T13:17:00;6.50;99.90
58513;DHT22;44302;47.914;10.642;2022-11-20T13:19:28;6.40;99.90
58513;DHT22;44302;47.914;10.642;2022-11-20T13:21:55;6.40;99.90
58513;DHT22;44302;47.914;10.642;2022-11-20T13:27:23;6.20;99.90
58513;DHT22;44302;47.914;10.642;2022-11-20T13:30:13;6.10;99.90
58513;DHT22;44302;47.914;10.642;2022-11-20T13:33:07;5.90;99.90
58513;DHT22;44302;47.914;10.642;2022-11-20T13:35:41;5.80;99.90
58513;DHT22;44302;47.914;10.642;2022-11-20T13:38:12;5.70;99.90
58513;DHT22;44302;47.914;10.642;2022-11-20T13:40:59;5.70;99.90
58513;DHT22;44302;47.914;10.642;2022-11-20T13:43:47;5.70;99.90
58513;DHT22;44302;47.914;10.642;2022-11-20T13:46:13;5.90;99.90
58513;DHT22;44302;47.914;10.642;2022-11-20T13:48:42;5.90;99.90
58513;DHT22;44302;47.914;10.642;2022-11-20T13:51:24;6.00;99.90
58513;DHT22;44302;47.914;10.642;2022-11-20T13:56:40;5.90;99.90
58513;DHT22;44302;47.914;10.642;2022-11-20T13:59:36;5.90;99.90
58513;DHT22;44302;47.914;10.642;2022-11-20T14:01:59;5.80;99.90
58513;DHT22;44302;47.914;10.642;2022-11-20T14:04:38;5.80;99.90
58513;DHT22;44302;47.914;10.642;2022-11-20T14:07:09;5.70;99.90
58513;DHT22;44302;47.914;10.642;2022-11-20T14:09:35;5.70;99.90
58513;DHT22;44302;47.914;10.642;2022-11-20T14:12:02;5.60;99.90
58513;DHT22;44302;47.914;10.642;2022-11-20T14:14:30;5.60;99.90
58513;DHT22;44302;47.914;10.642;2022-11-20T14:17:09;5.50;99.90
58513;DHT22;44302;47.914;10.642;2022-11-20T14:19:43;5.50;99.90
58513;DHT22;44302;47.914;10.642;2022-11-20T14:22:20;5.50;99.90
58513;DHT22;44302;47.914;10.642;2022-11-20T14:25:32;5.50;99.90
58513;DHT22;44302;47.914;10.642;2022-11-20T14:27:37;5.50;99.90
58513;DHT22;44302;47.914;10.642;2022-11-20T14:30:05;5.40;99.90
58513;DHT22;44302;47.914;10.642;2022-11-20T14:32:34;5.40;99.90
58513;DHT22;44302;47.914;10.642;2022-11-20T14:35:07;5.40;99.90
58513;DHT22;44302;47.914;10.642;2022-11-20T14:37:37;5.50;99.90
58513;DHT22;44302;47.914;10.642;2022-11-20T14:40:21;5.40;99.90
58513;DHT22;44302;47.914;10.642;2022-11-20T14:42:47;5.30;99.90
58513;DHT22;44302;47.914;10.642;2022-11-20T14:45:13;5.30;99.90
58513;DHT22;44302;47.914;10.642;2022-11-20T14:47:39;5.30;99.90
58513;DHT22;44302;47.914;10.642;2022-11-20T14:50:22;5.20;99.90
58513;DHT22;44302;47.914;10.642;2022-11-20T14:53:06;5.20;99.90
58513;DHT22;44302;47.914;10.642;2022-11-20T14:55:37;5.20;99.90
58513;DHT22;44302;47.914;10.642;2022-11-20T14:58:23;5.20;99.90
58513;DHT22;44302;47.914;10.642;2022-11-20T15:01:02;5.20;99.90
58513;DHT22;44302;47.914;10.642;2022-11-20T15:03:41;5.20;99.90
58513;DHT22;44302;47.914;10.642;2022-11-20T15:06:10;5.20;99.90
58513;DHT22;44302;47.914;10.642;2022-11-20T15:08:36;5.10;99.90
58513;DHT22;44302;47.914;10.642;2022-11-20T15:11:02;5.10;99.90
58513;DHT22;44302;47.914;10.642;2022-11-20T15:13:33;5.10;99.90
58513;DHT22;44302;47.914;10.642;2022-11-20T15:16:17;5.00;99.90
58513;DHT22;44302;47.914;10.642;2022-11-20T15:18:43;5.00;99.90
58513;DHT22;44302;47.914;10.642;2022-11-20T15:21:14;4.90;99.90
58513;DHT22;44302;47.914;10.642;2022-11-20T15:23:40;4.90;99.90
58513;DHT22;44302;47.914;10.642;2022-11-20T15:26:07;4.80;99.90
58513;DHT22;44302;47.914;10.642;2022-11-20T15:28:39;4.70;99.90
58513;DHT22;44302;47.914;10.642;2022-11-20T15:31:06;4.70;99.90
58513;DHT22;44302;47.914;10.642;2022-11-20T15:33:32;4.70;99.90
58513;DHT22;44302;47.914;10.642;2022-11-20T15:35:59;4.60;99.90
58513;DHT22;44302;47.914;10.642;2022-11-20T15:43:17;4.30;99.90
58513;DHT22;44302;47.914;10.642;2022-11-20T15:45:58;4.40;99.90
58513;DHT22;44302;47.914;10.642;2022-11-20T15:48:28;4.30;99.90
58513;DHT22;44302;47.914;10.642;2022-11-20T15:51:06;4.30;99.90
58513;DHT22;44302;47.914;10.642;2022-11-20T15:53:33;4.20;99.90
58513;DHT22;44302;47.914;10.642;2022-11-20T15:55:58;4.20;99.90
58513;DHT22;44302;47.914;10.642;2022-11-20T15:58:24;4.20;99.90
58513;DHT22;44302;47.914;10.642;2022-11-20T16:00:50;4.10;99.90
58513;DHT22;44302;47.914;10.642;2022-11-20T16:03:17;4.10;99.90
58513;DHT22;44302;47.914;10.642;2022-11-20T16:05:43;4.00;99.90
58513;DHT22;44302;47.914;10.642;2022-11-20T16:08:09;4.00;99.90
58513;DHT22;44302;47.914;10.642;2022-11-20T16:10:35;3.90;99.90
58513;DHT22;44302;47.914;10.642;2022-11-20T16:13:01;3.90;99.90
58513;DHT22;44302;47.914;10.642;2022-11-20T16:15:51;3.90;99.90
58513;DHT22;44302;47.914;10.642;2022-11-20T16:18:20;3.80;99.90
58513;DHT22;44302;47.914;10.642;2022-11-20T16:20:49;3.80;99.90
58513;DHT22;44302;47.914;10.642;2022-11-20T16:23:15;3.80;99.90
58513;DHT22;44302;47.914;10.642;2022-11-20T16:25:42;3.80;99.90
58513;DHT22;44302;47.914;10.642;2022-11-20T16:28:08;3.80;99.90
58513;DHT22;44302;47.914;10.642;2022-11-20T16:30:34;3.70;99.90
58513;DHT22;44302;47.914;10.642;2022-11-20T16:33:02;3.70;99.90
58513;DHT22;44302;47.914;10.642;2022-11-20T16:35:29;3.70;99.90
58513;DHT22;44302;47.914;10.642;2022-11-20T16:37:56;3.70;99.90
58513;DHT22;44302;47.914;10.642;2022-11-20T16:40:23;3.70;99.90
58513;DHT22;44302;47.914;10.642;2022-11-20T16:45:15;3.70;99.90
58513;DHT22;44302;47.914;10.642;2022-11-20T16:47:41;3.70;99.90
58513;DHT22;44302;47.914;10.642;2022-11-20T16:50:06;3.70;99.90
58513;DHT22;44302;47.914;10.642;2022-11-20T16:52:32;3.70;99.90
58513;DHT22;44302;47.914;10.642;2022-11-20T16:54:58;3.70;99.90
58513;DHT22;44302;47.914;10.642;2022-11-20T16:57:26;3.70;99.90
58513;DHT22;44302;47.914;10.642;2022-11-20T16:59:52;3.70;99.90
58513;DHT22;44302;47.914;10.642;2022-11-20T17:02:17;3.80;99.90
58513;DHT22;44302;47.914;10.642;2022-11-20T17:04:43;3.70;99.90
58513;DHT22;44302;47.914;10.642;2022-11-20T17:07:09;3.70;99.90
58513;DHT22;44302;47.914;10.642;2022-11-20T17:09:35;3.80;99.90
58513;DHT22;44302;47.914;10.642;2022-11-20T17:12:00;3.70;99.90
58513;DHT22;44302;47.914;10.642;2022-11-20T17:14:26;3.70;99.90
58513;DHT22;44302;47.914;10.642;2022-11-20T17:16:52;3.60;99.90
58513;DHT22;44302;47.914;10.642;2022-11-20T17:19:17;3.40;99.90
58513;DHT22;44302;47.914;10.642;2022-11-20T17:21:43;3.30;99.90
58513;DHT22;44302;47.914;10.642;2022-11-20T17:24:10;3.10;99.90
58513;DHT22;44302;47.914;10.642;2022-11-20T17:26:37;3.20;99.90
